Time;durP1;ratioP1;P1;durP2;ratioP2;P2;SDS_P1;SDS_P2;PMS_P1;PMS_P2;Temp;Humidity;BMP_temperature;BMP_pressure;BME280_temperature;BME280_humidity;BME280_pressure;Samples;Min_cycle;Max_cycle;Signal;HPM_P1;HPM_P2
2022/09/14 00:02:27;;;;;;;2.37;1.80;;;22.70;73.40;;;;;;7371823;19;21182;-48
2022/09/14 00:04:59;;;;;;;3.73;2.30;;;22.80;73.90;;;;;;7373900;19;20906;-48
2022/09/14 00:07:29;;;;;;;3.33;2.10;;;22.80;73.30;;;;;;7372510;19;20387;-48
2022/09/14 00:09:58;;;;;;;2.30;2.10;;;22.80;73.10;;;;;;7373704;19;20395;-46
2022/09/14 00:12:28;;;;;;;1.93;1.70;;;22.80;73.30;;;;;;7378997;19;20376;-46
2022/09/14 00:14:57;;;;;;;3.50;1.93;;;22.60;74.30;;;;;;7375736;19;20375;-46
2022/09/14 00:17:26;;;;;;;5.80;2.03;;;22.70;73.90;;;;;;7376670;19;20369;-46
2022/09/14 00:20:01;;;;;;;2.20;1.93;;;22.80;73.50;;;;;;7380389;19;20386;-46
2022/09/14 00:22:30;;;;;;;1.97;1.77;;;22.90;73.80;;;;;;7373270;19;21194;-46
2022/09/14 00:25:00;;;;;;;2.23;1.60;;;22.80;73.90;;;;;;7361936;19;20459;-46
2022/09/14 00:27:29;;;;;;;3.10;1.90;;;22.90;74.10;;;;;;7364575;19;20371;-46
2022/09/14 00:29:59;;;;;;;2.33;1.87;;;22.80;74.40;;;;;;7373209;19;20368;-46
2022/09/14 00:32:29;;;;;;;2.90;1.60;;;22.80;74.90;;;;;;7371639;19;20376;-46
2022/09/14 00:35:01;;;;;;;1.93;1.83;;;22.80;74.90;;;;;;7375786;19;20458;-46
2022/09/14 00:37:31;;;;;;;1.70;1.43;;;22.70;75.40;;;;;;7365631;19;20974;-46
2022/09/14 00:40:00;;;;;;;2.00;1.80;;;22.80;75.50;;;;;;7363179;19;20980;-46
2022/09/14 00:42:32;;;;;;;4.13;2.00;;;22.80;75.20;;;;;;7367335;19;20386;-46
2022/09/14 00:45:08;;;;;;;2.40;2.07;;;22.80;75.80;;;;;;7373567;19;20383;-47
2022/09/14 00:47:38;;;;;;;2.20;1.73;;;22.70;74.70;;;;;;7380041;19;20973;-46
2022/09/14 00:50:12;;;;;;;2.77;1.70;;;22.70;75.20;;;;;;7381455;19;20384;-46
2022/09/14 00:52:46;;;;;;;1.70;1.60;;;22.70;74.90;;;;;;7377274;19;20409;-46
2022/09/14 00:55:21;;;;;;;2.20;2.00;;;22.80;75.30;;;;;;7358371;19;20391;-46
2022/09/14 00:57:54;;;;;;;4.67;2.20;;;22.80;75.10;;;;;;7376908;19;20759;-46
2022/09/14 01:00:27;;;;;;;2.40;2.20;;;22.70;75.00;;;;;;7378855;19;20730;-46
2022/09/14 01:02:56;;;;;;;4.03;2.00;;;22.60;75.50;;;;;;7381967;19;20835;-46
2022/09/14 01:05:39;;;;;;;2.90;1.93;;;22.60;75.50;;;;;;7380530;19;20755;-46
2022/09/14 01:08:32;;;;;;;2.10;1.90;;;22.80;75.20;;;;;;7380350;19;20398;-47
2022/09/14 01:11:23;;;;;;;1.80;1.70;;;22.80;75.60;;;;;;7375715;19;20387;-47
2022/09/14 01:14:02;;;;;;;1.80;1.70;;;22.70;76.10;;;;;;7379420;19;20467;-46
2022/09/14 01:16:39;;;;;;;3.57;2.00;;;22.50;78.20;;;;;;7382847;19;20405;-46
2022/09/14 01:19:16;;;;;;;1.67;1.57;;;22.30;81.30;;;;;;7379877;19;20388;-48
2022/09/14 01:21:52;;;;;;;2.10;1.90;;;22.30;82.40;;;;;;7380286;19;20388;-48
2022/09/14 01:24:29;;;;;;;2.20;2.00;;;22.30;85.20;;;;;;7381035;19;20368;-48
2022/09/14 01:27:25;;;;;;;2.50;1.90;;;22.30;86.20;;;;;;7379927;19;20384;-48
2022/09/14 01:30:03;;;;;;;4.10;1.90;;;22.40;86.90;;;;;;7379937;19;20379;-47
2022/09/14 01:32:37;;;;;;;20.27;4.47;;;22.20;90.10;;;;;;7379976;19;20455;-52
2022/09/14 01:35:12;;;;;;;20.83;4.00;;;20.20;99.90;;;;;;7382487;19;20375;-46
2022/09/14 01:37:48;;;;;;;5.77;2.90;;;19.30;99.90;;;;;;7381266;19;20376;-46
2022/09/14 01:40:28;;;;;;;11.40;3.47;;;19.30;99.90;;;;;;7376355;19;20379;-48
2022/09/14 01:43:05;;;;;;;8.23;3.60;;;19.40;99.90;;;;;;7384165;19;20452;-49
2022/09/14 01:45:37;;;;;;;5.77;3.37;;;19.40;99.90;;;;;;7380282;19;20436;-50
2022/09/14 01:48:09;;;;;;;4.77;2.13;;;19.40;99.90;;;;;;7384180;19;20399;-52
2022/09/14 01:50:41;;;;;;;8.10;3.17;;;19.30;99.90;;;;;;7381840;19;20896;-52
2022/09/14 01:53:15;;;;;;;6.40;2.87;;;19.20;99.90;;;;;;7370031;19;20368;-53
2022/09/14 01:55:48;;;;;;;9.00;2.50;;;19.20;99.90;;;;;;7365907;19;20391;-53
2022/09/14 01:58:26;;;;;;;9.20;3.10;;;19.20;99.90;;;;;;7378669;19;20376;-52
2022/09/14 02:01:01;;;;;;;7.03;2.87;;;19.20;99.90;;;;;;7373312;19;20420;-53
2022/09/14 02:03:34;;;;;;;3.60;2.53;;;19.30;99.90;;;;;;7379461;19;20360;-52
2022/09/14 02:06:09;;;;;;;3.57;2.60;;;19.30;99.90;;;;;;7380470;19;21058;-52
2022/09/14 02:08:40;;;;;;;5.50;2.77;;;19.30;99.90;;;;;;7380870;19;20395;-52
2022/09/14 02:11:09;;;;;;;7.83;3.57;;;19.60;99.90;;;;;;7381534;19;20917;-52
2022/09/14 02:13:41;;;;;;;6.43;3.30;;;19.80;99.90;;;;;;7382535;19;20744;-52
2022/09/14 02:16:11;;;;;;;4.20;2.87;;;19.80;99.90;;;;;;7377417;19;20806;-52
2022/09/14 02:18:42;;;;;;;4.50;3.40;;;19.90;99.90;;;;;;7381521;19;20941;-52
2022/09/14 02:21:17;;;;;;;4.10;2.77;;;20.00;99.90;;;;;;7380130;19;20395;-52
2022/09/14 02:23:47;;;;;;;8.07;5.43;;;19.80;99.90;;;;;;7375659;19;20368;-52
2022/09/14 02:26:19;;;;;;;6.63;3.37;;;19.80;99.90;;;;;;7379182;19;20886;-52
2022/09/14 02:28:54;;;;;;;7.00;3.60;;;19.90;99.90;;;;;;7378989;19;20957;-52
2022/09/14 02:31:35;;;;;;;6.47;3.23;;;19.90;99.90;;;;;;7378028;19;20746;-51
2022/09/14 02:34:10;;;;;;;5.50;3.27;;;19.60;99.90;;;;;;7376939;19;20357;-51
2022/09/14 02:36:51;;;;;;;6.97;3.40;;;19.60;99.90;;;;;;7376849;19;20368;-51
2022/09/14 02:39:28;;;;;;;10.80;3.80;;;19.50;99.90;;;;;;7375959;19;20375;-52
2022/09/14 02:42:10;;;;;;;6.43;3.57;;;19.60;99.90;;;;;;7381143;19;20384;-51
2022/09/14 02:44:58;;;;;;;5.27;4.00;;;19.60;99.90;;;;;;7379894;19;20383;-51
2022/09/14 02:47:34;;;;;;;5.30;3.80;;;19.50;99.90;;;;;;7377999;19;20974;-51
2022/09/14 02:50:12;;;;;;;6.50;4.57;;;19.60;99.90;;;;;;7380817;19;20745;-51
2022/09/14 02:52:50;;;;;;;6.10;4.40;;;19.70;99.90;;;;;;7378919;19;20376;-51
2022/09/14 02:55:22;;;;;;;6.73;4.23;;;19.80;99.90;;;;;;7374504;19;20383;-50
2022/09/14 02:58:02;;;;;;;4.77;4.30;;;19.90;99.90;;;;;;7373660;19;20371;-51
2022/09/14 03:00:39;;;;;;;5.77;4.33;;;19.80;99.90;;;;;;7374002;19;20427;-52
2022/09/14 03:03:09;;;;;;;6.77;3.97;;;19.80;99.90;;;;;;7380263;19;20403;-50
2022/09/14 03:05:39;;;;;;;8.83;4.50;;;19.80;99.90;;;;;;7376307;19;20421;-51
2022/09/14 03:08:09;;;;;;;8.43;4.43;;;19.60;99.90;;;;;;7378921;19;20418;-51
2022/09/14 03:10:39;;;;;;;8.70;4.40;;;19.60;99.90;;;;;;7374869;19;20364;-50
2022/09/14 03:13:09;;;;;;;6.03;4.97;;;19.50;99.90;;;;;;7381205;19;20408;-51
2022/09/14 03:15:41;;;;;;;9.00;5.43;;;19.30;99.90;;;;;;7375904;19;20737;-51
2022/09/14 03:18:11;;;;;;;7.30;4.77;;;19.30;99.90;;;;;;7379381;19;20420;-50
2022/09/14 03:20:41;;;;;;;6.93;4.23;;;19.30;99.90;;;;;;7378965;19;20376;-50
2022/09/14 03:23:14;;;;;;;9.93;4.60;;;19.30;99.90;;;;;;7378268;19;20372;-51
2022/09/14 03:25:45;;;;;;;9.30;4.93;;;19.20;99.90;;;;;;7375511;19;20942;-50
2022/09/14 03:28:18;;;;;;;8.07;5.43;;;19.00;99.90;;;;;;7380977;19;21081;-50
2022/09/14 03:30:50;;;;;;;7.50;5.40;;;19.00;99.90;;;;;;7379520;19;20372;-48
2022/09/14 03:33:19;;;;;;;6.60;4.90;;;19.00;99.90;;;;;;7379275;19;20388;-48
2022/09/14 03:35:48;;;;;;;7.03;5.40;;;19.00;99.90;;;;;;7380963;19;20407;-48
2022/09/14 03:38:18;;;;;;;5.73;5.20;;;18.90;99.90;;;;;;7374531;19;20741;-48
2022/09/14 03:40:47;;;;;;;11.50;5.30;;;18.80;99.90;;;;;;7377294;19;20389;-48
2022/09/14 03:43:17;;;;;;;12.50;4.73;;;18.90;99.90;;;;;;7376257;19;20408;-48
2022/09/14 03:45:46;;;;;;;7.60;4.83;;;18.80;99.90;;;;;;7372812;19;20407;-48
2022/09/14 03:48:18;;;;;;;5.27;4.43;;;18.90;99.90;;;;;;7375367;19;20379;-48
2022/09/14 03:50:48;;;;;;;9.10;5.00;;;19.10;99.90;;;;;;7375703;19;20372;-48
2022/09/14 03:53:17;;;;;;;8.70;5.67;;;19.00;99.90;;;;;;7369938;19;20372;-48
2022/09/14 03:55:47;;;;;;;11.60;5.47;;;19.00;99.90;;;;;;7373558;19;20515;-48
2022/09/14 03:58:16;;;;;;;5.53;4.97;;;19.20;99.90;;;;;;7377891;19;20400;-48
2022/09/14 04:00:48;;;;;;;10.00;5.90;;;19.30;99.90;;;;;;7371397;19;21006;-50
2022/09/14 04:03:20;;;;;;;6.60;5.60;;;19.30;99.90;;;;;;7378746;19;20412;-50
2022/09/14 04:05:56;;;;;;;7.43;5.40;;;19.20;99.90;;;;;;7375378;19;20372;-50
2022/09/14 04:08:26;;;;;;;6.57;5.27;;;19.10;99.90;;;;;;7373792;19;20394;-50
2022/09/14 04:10:55;;;;;;;6.00;5.40;;;19.40;99.90;;;;;;7379798;19;20488;-50
2022/09/14 04:13:25;;;;;;;7.67;5.57;;;19.30;99.90;;;;;;7376189;19;20388;-50
2022/09/14 04:15:58;;;;;;;7.57;5.30;;;19.50;99.90;;;;;;7375941;19;20372;-50
2022/09/14 04:18:30;;;;;;;8.10;5.20;;;19.50;99.90;;;;;;7375274;19;20375;-51
2022/09/14 04:21:01;;;;;;;9.73;5.50;;;19.60;99.90;;;;;;7379353;19;20404;-50
2022/09/14 04:23:31;;;;;;;7.93;5.30;;;19.60;99.90;;;;;;7384554;19;20404;-50
2022/09/14 04:26:01;;;;;;;8.50;5.87;;;19.20;99.90;;;;;;7379770;19;20822;-50
2022/09/14 04:28:31;;;;;;;8.87;6.33;;;19.50;99.90;;;;;;7385632;19;20796;-49
2022/09/14 04:31:02;;;;;;;7.63;5.87;;;19.60;99.90;;;;;;7373076;19;20408;-50
2022/09/14 04:33:36;;;;;;;10.87;5.50;;;19.60;99.90;;;;;;7386761;19;20380;-50
2022/09/14 04:36:08;;;;;;;7.87;5.37;;;19.50;99.90;;;;;;7377045;19;20394;-50
2022/09/14 04:38:39;;;;;;;9.53;5.77;;;19.40;99.90;;;;;;7382989;19;20399;-50
2022/09/14 04:41:10;;;;;;;6.60;5.10;;;19.50;99.90;;;;;;7381524;19;20383;-50
2022/09/14 04:43:40;;;;;;;8.37;5.90;;;19.10;99.90;;;;;;7383868;19;20374;-49
2022/09/14 04:46:12;;;;;;;7.30;6.00;;;18.80;99.90;;;;;;7382761;19;20384;-50
2022/09/14 04:48:45;;;;;;;12.10;6.53;;;18.50;99.90;;;;;;7379699;19;20364;-50
2022/09/14 04:51:17;;;;;;;10.90;7.07;;;18.50;99.90;;;;;;7372866;19;20405;-49
2022/09/14 04:53:48;;;;;;;8.47;6.53;;;18.60;99.90;;;;;;7375470;19;20368;-50
2022/09/14 04:56:20;;;;;;;7.70;6.40;;;18.80;99.90;;;;;;7377890;19;20387;-50
2022/09/14 04:58:51;;;;;;;9.60;7.00;;;18.90;99.90;;;;;;7375111;19;20383;-51
2022/09/14 05:01:22;;;;;;;7.73;6.50;;;19.10;99.90;;;;;;7377553;19;20438;-48
2022/09/14 05:03:55;;;;;;;10.37;6.70;;;19.20;99.90;;;;;;7381423;19;20364;-48
2022/09/14 05:06:26;;;;;;;9.00;7.40;;;19.40;99.90;;;;;;7377500;19;20364;-48
2022/09/14 05:08:58;;;;;;;9.13;6.17;;;19.40;99.90;;;;;;7372433;19;21020;-48
2022/09/14 05:11:29;;;;;;;9.17;7.20;;;19.50;99.90;;;;;;7378927;19;20389;-48
2022/09/14 05:13:59;;;;;;;54.00;28.43;;;19.50;99.90;;;;;;7375757;19;20452;-48
2022/09/14 05:16:30;;;;;;;22.30;17.10;;;19.70;99.90;;;;;;7374916;19;20754;-48
2022/09/14 05:19:03;;;;;;;14.60;8.90;;;19.70;99.90;;;;;;7376611;19;20365;-48
2022/09/14 05:21:35;;;;;;;20.20;13.10;;;19.80;99.90;;;;;;7374560;19;20391;-48
2022/09/14 05:24:07;;;;;;;8.77;7.80;;;19.80;99.90;;;;;;7376763;19;20402;-48
2022/09/14 05:26:37;;;;;;;7.20;6.50;;;20.00;99.90;;;;;;7376531;19;22481;-48
2022/09/14 05:29:06;;;;;;;12.73;9.23;;;20.00;99.90;;;;;;7375596;19;20379;-48
2022/09/14 05:31:36;;;;;;;9.70;8.10;;;20.10;99.90;;;;;;7371735;19;20376;-50
2022/09/14 05:34:08;;;;;;;9.80;7.50;;;20.20;99.90;;;;;;7368595;19;20384;-51
2022/09/14 05:36:38;;;;;;;37.97;23.90;;;20.20;99.90;;;;;;7379456;19;20733;-50
2022/09/14 05:39:07;;;;;;;9.33;7.53;;;20.20;99.90;;;;;;7381328;19;20383;-51
2022/09/14 05:41:37;;;;;;;10.97;6.43;;;20.20;99.90;;;;;;7377484;19;20421;-51
2022/09/14 05:44:07;;;;;;;8.80;6.97;;;20.20;99.90;;;;;;7374755;19;20369;-51
2022/09/14 05:46:37;;;;;;;7.83;6.60;;;20.20;99.90;;;;;;7380614;19;20375;-50
2022/09/14 05:49:09;;;;;;;10.87;7.80;;;20.00;99.90;;;;;;7381821;19;20365;-50
2022/09/14 05:51:39;;;;;;;8.87;6.80;;;20.00;99.90;;;;;;7372698;19;20377;-51
2022/09/14 05:54:10;;;;;;;16.80;9.73;;;20.00;99.90;;;;;;7376403;19;20463;-50
2022/09/14 05:56:40;;;;;;;13.30;9.17;;;20.00;99.90;;;;;;7377899;19;21009;-50
2022/09/14 05:59:09;;;;;;;10.37;8.63;;;19.80;99.90;;;;;;7378050;19;20369;-50
2022/09/14 06:01:39;;;;;;;10.87;9.00;;;19.80;99.90;;;;;;7378466;19;21363;-50
2022/09/14 06:04:12;;;;;;;14.90;8.87;;;19.80;99.90;;;;;;7380192;19;20383;-51
2022/09/14 06:06:42;;;;;;;11.13;8.20;;;19.70;99.90;;;;;;7380893;19;20380;-50
2022/09/14 06:09:11;;;;;;;8.17;7.37;;;19.70;99.90;;;;;;7383106;19;20384;-50
2022/09/14 06:11:41;;;;;;;10.20;8.27;;;19.80;99.90;;;;;;7387009;19;20770;-52
2022/09/14 06:14:13;;;;;;;9.73;7.47;;;20.00;99.90;;;;;;7383709;19;20727;-50
2022/09/14 06:16:42;;;;;;;10.73;7.87;;;20.00;99.90;;;;;;7381898;19;20375;-50
2022/09/14 06:19:15;;;;;;;12.50;8.37;;;20.20;99.90;;;;;;7384195;19;20372;-50
2022/09/14 06:21:44;;;;;;;11.00;9.17;;;20.40;99.90;;;;;;7385715;19;20998;-50
2022/09/14 06:24:14;;;;;;;13.13;8.13;;;20.40;99.90;;;;;;7383362;19;20925;-50
2022/09/14 06:26:43;;;;;;;14.30;9.20;;;20.40;99.90;;;;;;7382565;19;20930;-50
2022/09/14 06:29:13;;;;;;;9.33;7.40;;;20.40;99.90;;;;;;7384066;19;20391;-50
2022/09/14 06:31:43;;;;;;;12.83;8.10;;;20.50;99.90;;;;;;7386349;19;20372;-50
2022/09/14 06:34:17;;;;;;;11.50;7.87;;;20.60;99.90;;;;;;7382200;19;20424;-50
2022/09/14 06:36:47;;;;;;;13.93;9.20;;;20.80;99.90;;;;;;7380960;19;20759;-50
2022/09/14 06:39:16;;;;;;;11.30;8.03;;;20.80;99.90;;;;;;7380732;19;20380;-50
2022/09/14 06:41:48;;;;;;;13.83;8.03;;;20.90;99.90;;;;;;7383691;19;20773;-50
2022/09/14 06:44:22;;;;;;;11.47;8.67;;;20.90;99.90;;;;;;7381849;19;20376;-50
2022/09/14 06:46:51;;;;;;;9.10;8.20;;;21.00;99.90;;;;;;7381162;19;20380;-50
2022/09/14 06:49:23;;;;;;;10.33;7.90;;;20.90;99.90;;;;;;7384287;19;20395;-50
2022/09/14 06:51:55;;;;;;;9.03;7.97;;;20.90;99.90;;;;;;7384082;19;20376;-50
2022/09/14 06:54:25;;;;;;;9.07;7.60;;;20.80;99.90;;;;;;7382392;19;20403;-50
2022/09/14 06:56:55;;;;;;;10.30;8.10;;;20.90;99.90;;;;;;7384653;19;20794;-51
2022/09/14 06:59:25;;;;;;;8.23;7.27;;;20.90;99.90;;;;;;7384061;19;20750;-50
2022/09/14 07:01:55;;;;;;;9.90;7.07;;;21.10;99.90;;;;;;7384541;19;20499;-50
2022/09/14 07:04:29;;;;;;;7.67;6.80;;;21.10;99.90;;;;;;7384920;19;20414;-50
2022/09/14 07:06:59;;;;;;;9.20;6.23;;;21.30;99.90;;;;;;7378641;19;20431;-50
2022/09/14 07:09:30;;;;;;;7.70;6.90;;;21.20;99.90;;;;;;7381215;19;20396;-50
2022/09/14 07:11:59;;;;;;;8.47;6.63;;;21.30;99.90;;;;;;7383325;19;20372;-50
2022/09/14 07:14:29;;;;;;;11.97;6.67;;;21.50;99.90;;;;;;7382091;19;20375;-50
2022/09/14 07:16:58;;;;;;;8.43;7.53;;;21.40;99.90;;;;;;7362912;19;20392;-51
2022/09/14 07:19:30;;;;;;;8.00;6.27;;;21.50;99.90;;;;;;7379634;19;20797;-50
2022/09/14 07:22:00;;;;;;;8.20;6.53;;;21.50;99.90;;;;;;7382464;19;20420;-50
2022/09/14 07:24:29;;;;;;;7.67;6.17;;;21.70;99.90;;;;;;7379726;19;20379;-50
2022/09/14 07:27:01;;;;;;;7.43;6.10;;;21.80;99.90;;;;;;7379169;19;20368;-51
2022/09/14 07:29:30;;;;;;;6.70;5.00;;;21.80;99.90;;;;;;7382468;19;20416;-51
2022/09/14 07:31:59;;;;;;;6.90;5.30;;;21.80;99.90;;;;;;7380978;19;20996;-50
2022/09/14 07:34:31;;;;;;;8.30;5.33;;;21.80;99.90;;;;;;7378236;19;20364;-51
2022/09/14 07:37:01;;;;;;;8.40;5.20;;;21.80;99.90;;;;;;7378164;19;20455;-50
2022/09/14 07:39:30;;;;;;;6.90;4.40;;;21.90;99.90;;;;;;7372902;19;20822;-50
2022/09/14 07:42:00;;;;;;;4.90;4.10;;;22.00;99.90;;;;;;7379322;19;20379;-50
2022/09/14 07:44:29;;;;;;;6.57;3.70;;;22.00;99.90;;;;;;7376687;19;20454;-50
2022/09/14 07:46:59;;;;;;;4.73;4.20;;;22.00;99.90;;;;;;7377026;19;20753;-50
2022/09/14 07:49:31;;;;;;;3.90;3.50;;;22.10;99.90;;;;;;7379596;19;20387;-50
2022/09/14 07:52:04;;;;;;;4.77;3.40;;;22.20;99.90;;;;;;7376029;19;20376;-50
2022/09/14 07:54:34;;;;;;;3.90;3.40;;;22.30;99.90;;;;;;7366990;19;20383;-50
2022/09/14 07:57:03;;;;;;;4.37;3.33;;;22.40;99.90;;;;;;7379130;19;20947;-50
2022/09/14 07:59:33;;;;;;;3.50;3.20;;;22.50;99.90;;;;;;7384353;19;20760;-49
2022/09/14 08:02:07;;;;;;;6.63;3.60;;;22.60;99.90;;;;;;7375624;19;20432;-49
2022/09/14 08:04:41;;;;;;;4.80;2.87;;;22.60;99.90;;;;;;7379893;19;20379;-49
2022/09/14 08:07:11;;;;;;;3.30;3.00;;;22.70;99.90;;;;;;7377004;19;20742;-49
2022/09/14 08:09:40;;;;;;;5.57;3.20;;;22.90;99.90;;;;;;7373010;19;21068;-48
2022/09/14 08:12:10;;;;;;;3.37;3.07;;;23.00;99.90;;;;;;7387663;19;20368;-48
2022/09/14 08:14:39;;;;;;;3.70;2.53;;;23.30;99.90;;;;;;7378610;19;20713;-48
2022/09/14 08:17:09;;;;;;;4.10;3.57;;;23.50;99.90;;;;;;7389122;19;20742;-49
2022/09/14 08:19:41;;;;;;;5.60;3.07;;;23.70;99.90;;;;;;7380685;19;20905;-48
2022/09/14 08:22:11;;;;;;;3.27;2.90;;;23.90;99.90;;;;;;7388237;19;20929;-48
2022/09/14 08:24:41;;;;;;;4.10;2.67;;;24.10;99.90;;;;;;7386001;19;20376;-48
2022/09/14 08:27:12;;;;;;;5.70;2.97;;;24.30;99.90;;;;;;7385851;19;20376;-48
2022/09/14 08:29:41;;;;;;;3.30;2.80;;;24.20;99.90;;;;;;7388891;19;20372;-49
2022/09/14 08:32:13;;;;;;;2.57;2.37;;;24.30;99.90;;;;;;7392377;19;20383;-48
2022/09/14 08:34:46;;;;;;;6.37;5.77;;;24.60;99.90;;;;;;7388022;19;20387;-48
2022/09/14 08:37:16;;;;;;;7.33;4.93;;;24.70;99.90;;;;;;7388465;19;20498;-48
2022/09/14 08:39:45;;;;;;;4.10;3.13;;;24.90;99.90;;;;;;7384285;19;20473;-48
2022/09/14 08:42:21;;;;;;;3.70;2.30;;;25.20;99.90;;;;;;7387765;19;20383;-48
2022/09/14 08:44:55;;;;;;;3.07;2.77;;;25.30;99.90;;;;;;7390392;19;20384;-48
2022/09/14 08:47:31;;;;;;;8.80;5.27;;;25.20;99.90;;;;;;7389539;19;20916;-49
2022/09/14 08:50:06;;;;;;;3.53;2.80;;;25.20;99.90;;;;;;7390903;19;20791;-48
2022/09/14 08:52:39;;;;;;;3.43;2.50;;;25.30;99.90;;;;;;7388295;19;20707;-49
2022/09/14 08:55:22;;;;;;;6.77;4.83;;;25.60;99.90;;;;;;7382525;19;21012;-48
2022/09/14 08:57:57;;;;;;;4.33;2.77;;;26.20;99.90;;;;;;7383598;19;20428;-48
2022/09/14 09:00:32;;;;;;;3.50;2.27;;;26.60;99.90;;;;;;7385391;19;20790;-48
2022/09/14 09:03:38;;;;;;;2.93;2.23;;;26.90;99.90;;;;;;7388232;19;20401;-49
2022/09/14 09:06:16;;;;;;;4.37;2.20;;;27.40;98.70;;;;;;7386415;19;20387;-49
2022/09/14 09:08:55;;;;;;;4.37;2.20;;;27.70;96.20;;;;;;7383206;19;20383;-48
2022/09/14 09:11:29;;;;;;;5.37;2.87;;;28.20;93.40;;;;;;7389810;19;20455;-48
2022/09/14 09:14:00;;;;;;;2.83;2.37;;;28.60;91.40;;;;;;7390949;19;20384;-49
2022/09/14 09:16:30;;;;;;;3.93;3.53;;;29.00;88.20;;;;;;7388888;19;20794;-49
2022/09/14 09:19:04;;;;;;;7.07;4.10;;;29.50;86.20;;;;;;7388285;19;20948;-49
2022/09/14 09:21:41;;;;;;;4.07;2.50;;;30.30;80.80;;;;;;7389009;19;20380;-49
2022/09/14 09:24:18;;;;;;;2.40;1.80;;;30.80;70.30;;;;;;7384480;19;20384;-49
2022/09/14 09:26:47;;;;;;;2.43;1.70;;;31.00;69.00;;;;;;7387565;19;20391;-49
2022/09/14 09:29:17;;;;;;;2.70;1.73;;;31.20;67.20;;;;;;7387056;19;20372;-49
2022/09/14 09:32:07;;;;;;;4.00;1.80;;;31.80;63.20;;;;;;7387285;19;20364;-49
2022/09/14 09:35:07;;;;;;;5.57;1.47;;;32.10;60.80;;;;;;7388043;19;20392;-49
2022/09/14 09:37:57;;;;;;;2.63;1.50;;;32.30;59.00;;;;;;7386953;19;20364;-49
2022/09/14 09:40:33;;;;;;;3.70;1.87;;;32.60;60.00;;;;;;7387117;19;20419;-49
2022/09/14 09:43:11;;;;;;;5.80;1.90;;;33.20;57.00;;;;;;7385579;19;20388;-49
2022/09/14 09:45:59;;;;;;;3.00;1.87;;;34.00;56.40;;;;;;7385187;19;20372;-49
2022/09/14 09:48:32;;;;;;;2.10;1.70;;;34.80;54.20;;;;;;7384812;19;20372;-49
2022/09/14 09:51:06;;;;;;;3.53;2.00;;;35.10;51.30;;;;;;7383906;19;20417;-49
2022/09/14 09:53:48;;;;;;;2.67;1.73;;;35.20;52.50;;;;;;7378567;19;20380;-49
2022/09/14 09:56:24;;;;;;;3.77;1.90;;;35.70;51.20;;;;;;7384962;19;20372;-49
2022/09/14 09:58:54;;;;;;;2.47;1.50;;;36.30;50.30;;;;;;7384672;19;20387;-49
2022/09/14 10:01:29;;;;;;;2.17;1.40;;;35.90;49.80;;;;;;7384181;19;20775;-49
2022/09/14 10:04:07;;;;;;;4.23;2.00;;;35.90;48.70;;;;;;7386350;19;20792;-49
2022/09/14 10:06:44;;;;;;;4.27;1.60;;;35.90;47.50;;;;;;7385864;19;20368;-49
2022/09/14 10:09:20;;;;;;;3.23;1.47;;;35.30;48.90;;;;;;7377633;19;20427;-49
2022/09/14 10:11:57;;;;;;;1.90;1.70;;;34.60;49.70;;;;;;7385674;19;20372;-49
2022/09/14 10:14:32;;;;;;;3.97;1.77;;;34.80;50.40;;;;;;7385318;19;20368;-49
2022/09/14 10:17:09;;;;;;;2.73;1.60;;;35.20;48.90;;;;;;7387095;19;20743;-49
2022/09/14 10:19:50;;;;;;;3.77;2.03;;;35.60;48.20;;;;;;7384534;19;20819;-49
2022/09/14 10:22:29;;;;;;;4.80;1.97;;;35.70;47.30;;;;;;7380448;19;20380;-49
2022/09/14 10:25:04;;;;;;;4.17;1.83;;;35.40;47.60;;;;;;7383883;19;20496;-49
2022/09/14 10:27:41;;;;;;;3.20;2.23;;;34.50;48.80;;;;;;7385413;19;20387;-49
2022/09/14 10:30:18;;;;;;;2.10;1.60;;;33.30;51.20;;;;;;7382072;19;20432;-49
2022/09/14 10:32:55;;;;;;;3.40;1.80;;;32.60;52.20;;;;;;7384762;19;20916;-49
2022/09/14 10:35:29;;;;;;;3.30;2.10;;;32.70;52.60;;;;;;7382619;19;20420;-49
2022/09/14 10:38:14;;;;;;;3.50;1.87;;;32.90;52.40;;;;;;7383332;19;20376;-49
2022/09/14 10:40:51;;;;;;;3.60;1.90;;;33.00;51.70;;;;;;7383605;19;20520;-49
2022/09/14 10:43:32;;;;;;;2.43;1.67;;;33.00;52.40;;;;;;7382302;19;20372;-49
2022/09/14 10:46:06;;;;;;;2.20;1.90;;;32.80;52.10;;;;;;7381165;19;20777;-49
2022/09/14 10:48:51;;;;;;;4.20;1.90;;;32.50;52.10;;;;;;7382247;19;20929;-49
2022/09/14 10:51:34;;;;;;;4.00;1.60;;;32.20;52.60;;;;;;7381319;19;20376;-49
2022/09/14 10:54:16;;;;;;;3.20;2.10;;;31.90;53.50;;;;;;7385554;19;20371;-49
2022/09/14 10:57:05;;;;;;;3.97;2.13;;;31.50;53.80;;;;;;7383738;19;20376;-49
2022/09/14 10:59:42;;;;;;;3.80;2.00;;;31.30;54.50;;;;;;7385456;19;20417;-49
2022/09/14 11:02:45;;;;;;;3.80;1.70;;;31.30;55.70;;;;;;7383373;19;20423;-49
2022/09/14 11:05:21;;;;;;;2.93;1.57;;;31.60;54.10;;;;;;7382327;19;21063;-49
2022/09/14 11:08:04;;;;;;;3.43;2.20;;;31.60;53.90;;;;;;7378404;19;20408;-49
2022/09/14 11:10:42;;;;;;;3.00;1.50;;;31.50;54.40;;;;;;7381038;19;20376;-49
2022/09/14 11:13:34;;;;;;;3.00;1.77;;;31.50;54.50;;;;;;7384280;19;21019;-49
2022/09/14 11:16:11;;;;;;;2.30;1.87;;;32.20;53.80;;;;;;7382899;19;20405;-49
2022/09/14 11:18:48;;;;;;;3.47;1.70;;;32.90;51.40;;;;;;7380446;19;20363;-49
2022/09/14 11:21:26;;;;;;;2.23;1.73;;;33.70;50.30;;;;;;7381708;19;20381;-49
2022/09/14 11:24:00;;;;;;;2.40;1.67;;;34.80;48.90;;;;;;7381429;19;20360;-49
2022/09/14 11:26:33;;;;;;;2.90;1.80;;;35.40;46.90;;;;;;7384048;19;21022;-49
2022/09/14 11:29:15;;;;;;;4.70;1.60;;;36.00;46.00;;;;;;7378717;19;20404;-49
2022/09/14 11:31:53;;;;;;;3.60;1.70;;;36.50;45.30;;;;;;7383633;19;20376;-49
2022/09/14 11:34:29;;;;;;;3.37;2.07;;;37.20;43.70;;;;;;7380710;19;20411;-49
2022/09/14 11:37:05;;;;;;;1.67;1.33;;;37.10;43.10;;;;;;7379923;19;20383;-50
2022/09/14 11:39:38;;;;;;;1.73;1.17;;;37.00;42.90;;;;;;7381554;19;20736;-49
2022/09/14 11:42:12;;;;;;;2.20;1.40;;;37.00;43.30;;;;;;7381908;19;21189;-49
2022/09/14 11:44:45;;;;;;;4.37;1.90;;;36.90;43.30;;;;;;7383052;19;20419;-49
2022/09/14 11:47:22;;;;;;;2.60;1.50;;;36.90;43.20;;;;;;7382201;19;20426;-49
2022/09/14 11:50:02;;;;;;;1.60;1.30;;;36.60;43.00;;;;;;7382261;19;20480;-48
2022/09/14 11:52:35;;;;;;;2.50;1.63;;;36.20;43.20;;;;;;7376579;19;20392;-48
2022/09/14 11:55:12;;;;;;;3.13;1.80;;;36.00;43.10;;;;;;7381502;19;20364;-49
2022/09/14 11:57:47;;;;;;;5.03;2.03;;;35.80;43.60;;;;;;7381944;19;20773;-49
2022/09/14 12:00:48;;;;;;;2.50;1.80;;;35.70;43.20;;;;;;7379092;19;20376;-49
2022/09/14 12:03:21;;;;;;;3.17;1.90;;;35.00;43.80;;;;;;7380428;19;21659;-49
2022/09/14 12:05:51;;;;;;;2.13;1.50;;;33.90;46.00;;;;;;7384189;19;20383;-49
2022/09/14 12:08:40;;;;;;;2.13;1.57;;;33.00;47.40;;;;;;7377117;19;20392;-48
2022/09/14 12:11:29;;;;;;;2.33;1.40;;;32.30;49.20;;;;;;7382730;19;20439;-49
2022/09/14 12:14:16;;;;;;;3.93;2.20;;;31.70;50.60;;;;;;7382742;19;20380;-49
2022/09/14 12:17:08;;;;;;;2.80;1.63;;;31.30;51.30;;;;;;7375655;19;20359;-48
2022/09/14 12:19:38;;;;;;;2.97;1.70;;;30.90;52.20;;;;;;7381880;19;20403;-48
2022/09/14 12:22:26;;;;;;;3.10;2.50;;;30.60;53.30;;;;;;7379586;19;20405;-49
2022/09/14 12:25:16;;;;;;;3.50;1.80;;;30.10;54.10;;;;;;7379156;19;20379;-49
2022/09/14 12:27:50;;;;;;;5.53;2.03;;;30.00;54.90;;;;;;7379798;19;20372;-49
2022/09/14 12:30:50;;;;;;;4.80;2.13;;;29.80;55.60;;;;;;7382746;19;20742;-49
2022/09/14 12:34:06;;;;;;;5.73;2.17;;;29.50;56.00;;;;;;7380998;19;20519;-49
2022/09/14 12:36:58;;;;;;;3.70;1.70;;;29.00;57.10;;;;;;7380694;19;20840;-49
2022/09/14 12:39:30;;;;;;;3.63;2.33;;;28.60;60.60;;;;;;7371353;19;20856;-49
2022/09/14 12:42:05;;;;;;;3.60;2.10;;;28.10;71.70;;;;;;7378472;19;20372;-49
2022/09/14 12:44:41;;;;;;;4.30;2.10;;;27.90;68.90;;;;;;7389904;19;20360;-49
2022/09/14 12:47:40;;;;;;;4.37;2.00;;;27.70;68.30;;;;;;7389118;19;20383;-49
2022/09/14 12:50:18;;;;;;;6.50;2.47;;;27.30;68.90;;;;;;7388937;19;20363;-49
2022/09/14 12:53:17;;;;;;;4.63;2.10;;;27.00;72.90;;;;;;7383831;19;20378;-49
2022/09/14 12:55:57;;;;;;;4.90;2.10;;;26.70;75.50;;;;;;7386486;19;20383;-49
2022/09/14 12:58:36;;;;;;;3.17;2.30;;;26.50;75.90;;;;;;7389231;19;21450;-48
2022/09/14 13:01:19;;;;;;;4.03;1.77;;;26.20;78.30;;;;;;7382747;19;20787;-49
2022/09/14 13:03:53;;;;;;;3.00;1.60;;;26.00;83.00;;;;;;7387885;19;20388;-49
2022/09/14 13:06:36;;;;;;;4.90;2.60;;;25.60;91.60;;;;;;7385780;19;21160;-49
2022/09/14 13:09:06;;;;;;;3.20;2.70;;;25.50;94.60;;;;;;7385797;19;20383;-49
2022/09/14 13:11:41;;;;;;;6.23;2.57;;;25.40;97.30;;;;;;7387546;19;20450;-49
2022/09/14 13:14:19;;;;;;;5.80;2.70;;;25.40;97.10;;;;;;7386791;19;20371;-49
2022/09/14 13:16:51;;;;;;;3.03;2.47;;;25.30;99.90;;;;;;7359856;19;20417;-48
2022/09/14 13:19:24;;;;;;;2.40;2.20;;;25.10;99.90;;;;;;7386749;19;20376;-49
2022/09/14 13:21:57;;;;;;;2.40;1.93;;;25.20;99.90;;;;;;7388186;19;20364;-49
2022/09/14 13:24:33;;;;;;;6.63;2.30;;;25.10;99.90;;;;;;7385951;19;20397;-49